Terminal Aerodrome Forecast
Issued by NWS Wilmington, OH

Current Version | Previous Version | Text Only | Print | Product List | Glossary Off
Versions: 1 2 3 4 5 6 7 8 9 10 11 12 13 14 15 16 17 18 19 20 21 22 23

000
FTUS41 KILN 231700
TAFILN
TAF
KILN 231720Z 2318/2418 29016G24KT P6SM SCT060
     FM240000 30009KT P6SM SKC
     FM240500 VRB02KT P6SM SKC
     FM241400 26006KT P6SM FEW250=

USA.gov is the U.S. government's official web portal to all federal, state and local government web resources and services.